sensor_id;sensor_type;location;lat;lon;timestamp;P1;durP1;ratioP1;P2;durP2;ratioP2
7517;SDS011;3800;48.922;9.444;2022-08-01T00:00:45;2.10;;;1.87;;
7517;SDS011;3800;48.922;9.444;2022-08-01T00:03:14;3.77;;;2.10;;
7517;SDS011;3800;48.922;9.444;2022-08-01T00:05:43;4.10;;;2.03;;
7517;SDS011;3800;48.922;9.444;2022-08-01T00:08:11;3.23;;;2.13;;
7517;SDS011;3800;48.922;9.444;2022-08-01T00:10:43;2.40;;;2.20;;
7517;SDS011;3800;48.922;9.444;2022-08-01T00:13:11;2.97;;;2.00;;
7517;SDS011;3800;48.922;9.444;2022-08-01T00:15:41;3.10;;;2.27;;
7517;SDS011;3800;48.922;9.444;2022-08-01T00:18:10;2.80;;;2.10;;
7517;SDS011;3800;48.922;9.444;2022-08-01T00:20:40;2.37;;;2.17;;
7517;SDS011;3800;48.922;9.444;2022-08-01T00:23:08;2.23;;;2.03;;
7517;SDS011;3800;48.922;9.444;2022-08-01T00:25:37;2.20;;;2.00;;
7517;SDS011;3800;48.922;9.444;2022-08-01T00:28:06;4.90;;;2.20;;
7517;SDS011;3800;48.922;9.444;2022-08-01T00:30:35;3.20;;;2.10;;
7517;SDS011;3800;48.922;9.444;2022-08-01T00:33:03;2.13;;;1.97;;
7517;SDS011;3800;48.922;9.444;2022-08-01T00:35:31;5.47;;;2.13;;
7517;SDS011;3800;48.922;9.444;2022-08-01T00:37:59;2.93;;;2.07;;
7517;SDS011;3800;48.922;9.444;2022-08-01T00:40:28;2.73;;;2.07;;
7517;SDS011;3800;48.922;9.444;2022-08-01T00:42:56;2.37;;;2.17;;
7517;SDS011;3800;48.922;9.444;2022-08-01T00:45:24;2.33;;;1.90;;
7517;SDS011;3800;48.922;9.444;2022-08-01T00:47:52;2.30;;;1.77;;
7517;SDS011;3800;48.922;9.444;2022-08-01T00:50:21;2.60;;;2.10;;
7517;SDS011;3800;48.922;9.444;2022-08-01T00:52:49;2.93;;;2.20;;
7517;SDS011;3800;48.922;9.444;2022-08-01T00:55:18;2.30;;;2.10;;
7517;SDS011;3800;48.922;9.444;2022-08-01T00:57:48;2.90;;;2.40;;
7517;SDS011;3800;48.922;9.444;2022-08-01T01:00:16;2.73;;;2.00;;
7517;SDS011;3800;48.922;9.444;2022-08-01T01:02:45;2.67;;;2.27;;
7517;SDS011;3800;48.922;9.444;2022-08-01T01:05:13;3.50;;;2.20;;
7517;SDS011;3800;48.922;9.444;2022-08-01T01:07:50;2.33;;;2.10;;
7517;SDS011;3800;48.922;9.444;2022-08-01T01:10:25;2.80;;;2.03;;
7517;SDS011;3800;48.922;9.444;2022-08-01T01:12:56;2.13;;;1.83;;
7517;SDS011;3800;48.922;9.444;2022-08-01T01:15:35;3.23;;;2.00;;
7517;SDS011;3800;48.922;9.444;2022-08-01T01:18:05;2.70;;;2.10;;
7517;SDS011;3800;48.922;9.444;2022-08-01T01:20:35;2.43;;;2.20;;
7517;SDS011;3800;48.922;9.444;2022-08-01T01:25:41;2.30;;;2.10;;
7517;SDS011;3800;48.922;9.444;2022-08-01T01:31:01;4.60;;;2.20;;
7517;SDS011;3800;48.922;9.444;2022-08-01T01:33:29;2.10;;;1.90;;
7517;SDS011;3800;48.922;9.444;2022-08-01T01:35:59;2.87;;;2.27;;
7517;SDS011;3800;48.922;9.444;2022-08-01T01:38:28;3.27;;;2.23;;
7517;SDS011;3800;48.922;9.444;2022-08-01T01:40:56;3.20;;;2.30;;
7517;SDS011;3800;48.922;9.444;2022-08-01T01:43:24;3.73;;;2.10;;
7517;SDS011;3800;48.922;9.444;2022-08-01T01:45:53;2.50;;;2.30;;
7517;SDS011;3800;48.922;9.444;2022-08-01T01:48:22;2.37;;;2.17;;
7517;SDS011;3800;48.922;9.444;2022-08-01T01:50:51;2.60;;;2.40;;
7517;SDS011;3800;48.922;9.444;2022-08-01T01:53:20;2.50;;;2.30;;
7517;SDS011;3800;48.922;9.444;2022-08-01T01:55:48;2.63;;;2.43;;
7517;SDS011;3800;48.922;9.444;2022-08-01T01:58:16;2.73;;;2.53;;
7517;SDS011;3800;48.922;9.444;2022-08-01T02:00:44;3.27;;;2.53;;
7517;SDS011;3800;48.922;9.444;2022-08-01T02:03:13;2.63;;;2.40;;
7517;SDS011;3800;48.922;9.444;2022-08-01T02:05:41;3.00;;;2.20;;
7517;SDS011;3800;48.922;9.444;2022-08-01T02:08:09;2.57;;;2.37;;
7517;SDS011;3800;48.922;9.444;2022-08-01T02:10:37;2.70;;;2.50;;
7517;SDS011;3800;48.922;9.444;2022-08-01T02:13:06;3.07;;;2.50;;
7517;SDS011;3800;48.922;9.444;2022-08-01T02:15:34;3.07;;;2.53;;
7517;SDS011;3800;48.922;9.444;2022-08-01T02:18:02;2.50;;;2.30;;
7517;SDS011;3800;48.922;9.444;2022-08-01T02:20:30;2.80;;;2.30;;
7517;SDS011;3800;48.922;9.444;2022-08-01T02:23:06;3.47;;;2.50;;
7517;SDS011;3800;48.922;9.444;2022-08-01T02:25:36;2.50;;;2.30;;
7517;SDS011;3800;48.922;9.444;2022-08-01T02:28:07;2.60;;;2.40;;
7517;SDS011;3800;48.922;9.444;2022-08-01T02:30:37;3.80;;;2.47;;
7517;SDS011;3800;48.922;9.444;2022-08-01T02:33:07;3.50;;;2.70;;
7517;SDS011;3800;48.922;9.444;2022-08-01T02:35:37;2.80;;;2.53;;
7517;SDS011;3800;48.922;9.444;2022-08-01T02:38:05;6.00;;;2.57;;
7517;SDS011;3800;48.922;9.444;2022-08-01T02:40:32;2.93;;;2.63;;
7517;SDS011;3800;48.922;9.444;2022-08-01T02:43:02;4.27;;;2.47;;
7517;SDS011;3800;48.922;9.444;2022-08-01T02:45:29;4.00;;;2.60;;
7517;SDS011;3800;48.922;9.444;2022-08-01T02:47:59;3.27;;;2.60;;
7517;SDS011;3800;48.922;9.444;2022-08-01T02:50:26;2.90;;;2.50;;
7517;SDS011;3800;48.922;9.444;2022-08-01T02:52:54;2.50;;;2.30;;
7517;SDS011;3800;48.922;9.444;2022-08-01T02:55:22;3.93;;;2.70;;
7517;SDS011;3800;48.922;9.444;2022-08-01T02:57:51;3.00;;;2.70;;
7517;SDS011;3800;48.922;9.444;2022-08-01T03:00:20;2.43;;;2.23;;
7517;SDS011;3800;48.922;9.444;2022-08-01T03:02:48;4.97;;;2.67;;
7517;SDS011;3800;48.922;9.444;2022-08-01T03:05:17;3.07;;;2.77;;
7517;SDS011;3800;48.922;9.444;2022-08-01T03:07:45;2.60;;;2.40;;
7517;SDS011;3800;48.922;9.444;2022-08-01T03:10:15;3.50;;;2.70;;
7517;SDS011;3800;48.922;9.444;2022-08-01T03:12:43;2.60;;;2.40;;
7517;SDS011;3800;48.922;9.444;2022-08-01T03:15:11;2.80;;;2.43;;
7517;SDS011;3800;48.922;9.444;2022-08-01T03:17:39;2.60;;;2.40;;
7517;SDS011;3800;48.922;9.444;2022-08-01T03:20:07;2.87;;;2.50;;
7517;SDS011;3800;48.922;9.444;2022-08-01T03:22:36;3.13;;;2.80;;
7517;SDS011;3800;48.922;9.444;2022-08-01T03:25:04;3.33;;;3.03;;
7517;SDS011;3800;48.922;9.444;2022-08-01T03:27:33;3.17;;;2.83;;
7517;SDS011;3800;48.922;9.444;2022-08-01T03:30:03;3.77;;;3.30;;
7517;SDS011;3800;48.922;9.444;2022-08-01T03:32:32;3.23;;;2.80;;
7517;SDS011;3800;48.922;9.444;2022-08-01T03:35:01;3.60;;;3.00;;
7517;SDS011;3800;48.922;9.444;2022-08-01T03:37:30;3.40;;;2.90;;
7517;SDS011;3800;48.922;9.444;2022-08-01T03:40:29;3.07;;;2.77;;
7517;SDS011;3800;48.922;9.444;2022-08-01T03:43:09;3.27;;;2.90;;
7517;SDS011;3800;48.922;9.444;2022-08-01T03:45:38;2.87;;;2.63;;
7517;SDS011;3800;48.922;9.444;2022-08-01T03:48:09;3.47;;;3.17;;
7517;SDS011;3800;48.922;9.444;2022-08-01T03:50:40;5.07;;;2.97;;
7517;SDS011;3800;48.922;9.444;2022-08-01T03:53:06;3.87;;;3.00;;
7517;SDS011;3800;48.922;9.444;2022-08-01T03:55:35;4.90;;;3.33;;
7517;SDS011;3800;48.922;9.444;2022-08-01T03:58:03;4.03;;;3.20;;
7517;SDS011;3800;48.922;9.444;2022-08-01T04:00:31;3.77;;;3.47;;
7517;SDS011;3800;48.922;9.444;2022-08-01T04:03:00;3.67;;;3.10;;
7517;SDS011;3800;48.922;9.444;2022-08-01T04:05:29;3.37;;;3.07;;
7517;SDS011;3800;48.922;9.444;2022-08-01T04:07:57;3.17;;;2.90;;
7517;SDS011;3800;48.922;9.444;2022-08-01T04:10:26;3.53;;;3.20;;
7517;SDS011;3800;48.922;9.444;2022-08-01T04:12:54;4.10;;;3.53;;
7517;SDS011;3800;48.922;9.444;2022-08-01T04:15:22;4.10;;;3.70;;
7517;SDS011;3800;48.922;9.444;2022-08-01T04:17:50;3.40;;;3.10;;
7517;SDS011;3800;48.922;9.444;2022-08-01T04:20:21;3.90;;;3.30;;
7517;SDS011;3800;48.922;9.444;2022-08-01T04:22:49;3.50;;;3.20;;
7517;SDS011;3800;48.922;9.444;2022-08-01T04:25:21;3.47;;;3.17;;
7517;SDS011;3800;48.922;9.444;2022-08-01T04:27:57;3.60;;;3.13;;
7517;SDS011;3800;48.922;9.444;2022-08-01T04:30:27;3.20;;;2.90;;
7517;SDS011;3800;48.922;9.444;2022-08-01T04:32:55;3.53;;;2.73;;
7517;SDS011;3800;48.922;9.444;2022-08-01T04:35:23;3.50;;;3.20;;
7517;SDS011;3800;48.922;9.444;2022-08-01T04:37:52;3.40;;;3.10;;
7517;SDS011;3800;48.922;9.444;2022-08-01T04:40:20;4.17;;;2.97;;
7517;SDS011;3800;48.922;9.444;2022-08-01T04:42:49;3.60;;;3.17;;
7517;SDS011;3800;48.922;9.444;2022-08-01T04:45:18;3.70;;;3.33;;
7517;SDS011;3800;48.922;9.444;2022-08-01T04:47:46;3.37;;;3.07;;
7517;SDS011;3800;48.922;9.444;2022-08-01T04:50:15;5.20;;;3.37;;
7517;SDS011;3800;48.922;9.444;2022-08-01T04:52:44;3.63;;;3.20;;
7517;SDS011;3800;48.922;9.444;2022-08-01T04:55:12;3.83;;;3.10;;
7517;SDS011;3800;48.922;9.444;2022-08-01T04:57:41;4.43;;;3.20;;
7517;SDS011;3800;48.922;9.444;2022-08-01T05:00:08;3.20;;;2.90;;
7517;SDS011;3800;48.922;9.444;2022-08-01T05:02:37;3.53;;;3.10;;
7517;SDS011;3800;48.922;9.444;2022-08-01T05:05:05;3.60;;;3.23;;
7517;SDS011;3800;48.922;9.444;2022-08-01T05:07:34;3.50;;;3.20;;
7517;SDS011;3800;48.922;9.444;2022-08-01T05:10:03;3.80;;;3.27;;
7517;SDS011;3800;48.922;9.444;2022-08-01T05:12:31;3.70;;;3.40;;
7517;SDS011;3800;48.922;9.444;2022-08-01T05:14:59;3.50;;;3.20;;
7517;SDS011;3800;48.922;9.444;2022-08-01T05:17:28;3.50;;;3.20;;
7517;SDS011;3800;48.922;9.444;2022-08-01T05:19:56;3.43;;;3.13;;
7517;SDS011;3800;48.922;9.444;2022-08-01T05:22:25;4.20;;;3.40;;
7517;SDS011;3800;48.922;9.444;2022-08-01T05:24:54;6.00;;;3.60;;
7517;SDS011;3800;48.922;9.444;2022-08-01T05:27:22;3.80;;;3.50;;
7517;SDS011;3800;48.922;9.444;2022-08-01T05:29:51;4.60;;;4.10;;
7517;SDS011;3800;48.922;9.444;2022-08-01T05:32:19;4.70;;;4.03;;
7517;SDS011;3800;48.922;9.444;2022-08-01T05:34:47;4.77;;;4.20;;
7517;SDS011;3800;48.922;9.444;2022-08-01T05:37:15;4.30;;;3.70;;
7517;SDS011;3800;48.922;9.444;2022-08-01T05:39:44;5.50;;;3.97;;
7517;SDS011;3800;48.922;9.444;2022-08-01T05:42:13;4.33;;;3.80;;
7517;SDS011;3800;48.922;9.444;2022-08-01T05:44:41;5.73;;;3.80;;
7517;SDS011;3800;48.922;9.444;2022-08-01T05:47:09;4.37;;;3.97;;
7517;SDS011;3800;48.922;9.444;2022-08-01T05:49:38;4.43;;;3.60;;
7517;SDS011;3800;48.922;9.444;2022-08-01T05:52:06;3.80;;;3.40;;
7517;SDS011;3800;48.922;9.444;2022-08-01T05:54:34;3.63;;;3.33;;
7517;SDS011;3800;48.922;9.444;2022-08-01T05:57:03;4.03;;;3.30;;
7517;SDS011;3800;48.922;9.444;2022-08-01T05:59:32;4.17;;;3.20;;
7517;SDS011;3800;48.922;9.444;2022-08-01T06:02:00;4.10;;;3.10;;
7517;SDS011;3800;48.922;9.444;2022-08-01T06:04:28;4.40;;;3.10;;
7517;SDS011;3800;48.922;9.444;2022-08-01T06:06:56;4.30;;;3.10;;
7517;SDS011;3800;48.922;9.444;2022-08-01T06:09:25;3.47;;;3.10;;
7517;SDS011;3800;48.922;9.444;2022-08-01T06:11:53;3.43;;;3.13;;
7517;SDS011;3800;48.922;9.444;2022-08-01T06:14:21;3.40;;;3.10;;
7517;SDS011;3800;48.922;9.444;2022-08-01T06:16:50;3.70;;;3.13;;
7517;SDS011;3800;48.922;9.444;2022-08-01T06:19:19;3.13;;;2.83;;
7517;SDS011;3800;48.922;9.444;2022-08-01T06:21:47;4.07;;;3.00;;
7517;SDS011;3800;48.922;9.444;2022-08-01T06:24:16;5.77;;;3.10;;
7517;SDS011;3800;48.922;9.444;2022-08-01T06:26:45;3.30;;;3.00;;
7517;SDS011;3800;48.922;9.444;2022-08-01T06:29:14;3.67;;;3.00;;
7517;SDS011;3800;48.922;9.444;2022-08-01T06:31:42;3.33;;;2.90;;
7517;SDS011;3800;48.922;9.444;2022-08-01T06:34:10;3.73;;;3.20;;
7517;SDS011;3800;48.922;9.444;2022-08-01T06:36:38;3.50;;;3.20;;
7517;SDS011;3800;48.922;9.444;2022-08-01T06:39:07;4.33;;;3.00;;
7517;SDS011;3800;48.922;9.444;2022-08-01T06:41:35;3.03;;;2.57;;
7517;SDS011;3800;48.922;9.444;2022-08-01T06:44:04;5.17;;;2.90;;
7517;SDS011;3800;48.922;9.444;2022-08-01T06:46:32;3.00;;;2.80;;
7517;SDS011;3800;48.922;9.444;2022-08-01T06:49:00;3.70;;;3.30;;
7517;SDS011;3800;48.922;9.444;2022-08-01T06:51:29;4.33;;;2.93;;
7517;SDS011;3800;48.922;9.444;2022-08-01T06:53:58;3.90;;;2.50;;
7517;SDS011;3800;48.922;9.444;2022-08-01T06:56:27;2.53;;;2.30;;
7517;SDS011;3800;48.922;9.444;2022-08-01T06:58:55;2.53;;;2.33;;
7517;SDS011;3800;48.922;9.444;2022-08-01T07:01:23;4.37;;;2.43;;
7517;SDS011;3800;48.922;9.444;2022-08-01T07:03:52;2.90;;;2.50;;
7517;SDS011;3800;48.922;9.444;2022-08-01T07:06:21;3.10;;;2.20;;
7517;SDS011;3800;48.922;9.444;2022-08-01T07:08:48;4.60;;;2.30;;
7517;SDS011;3800;48.922;9.444;2022-08-01T07:11:16;3.70;;;2.30;;
7517;SDS011;3800;48.922;9.444;2022-08-01T07:13:45;4.80;;;2.20;;
7517;SDS011;3800;48.922;9.444;2022-08-01T07:16:14;4.20;;;2.27;;
7517;SDS011;3800;48.922;9.444;2022-08-01T07:18:44;3.77;;;2.50;;
7517;SDS011;3800;48.922;9.444;2022-08-01T07:21:12;3.50;;;2.20;;
7517;SDS011;3800;48.922;9.444;2022-08-01T07:23:41;3.80;;;2.60;;
7517;SDS011;3800;48.922;9.444;2022-08-01T07:26:09;2.57;;;2.00;;
7517;SDS011;3800;48.922;9.444;2022-08-01T07:28:38;3.53;;;2.17;;
7517;SDS011;3800;48.922;9.444;2022-08-01T07:31:06;4.40;;;1.90;;
7517;SDS011;3800;48.922;9.444;2022-08-01T07:33:35;2.07;;;1.83;;
7517;SDS011;3800;48.922;9.444;2022-08-01T07:36:03;3.07;;;1.87;;
7517;SDS011;3800;48.922;9.444;2022-08-01T07:38:31;1.80;;;1.63;;
7517;SDS011;3800;48.922;9.444;2022-08-01T07:41:00;2.00;;;1.80;;
7517;SDS011;3800;48.922;9.444;2022-08-01T07:43:28;3.40;;;1.80;;
7517;SDS011;3800;48.922;9.444;2022-08-01T07:45:57;2.27;;;1.87;;
7517;SDS011;3800;48.922;9.444;2022-08-01T07:48:25;3.00;;;1.80;;
7517;SDS011;3800;48.922;9.444;2022-08-01T07:50:53;2.40;;;1.97;;
7517;SDS011;3800;48.922;9.444;2022-08-01T07:53:22;2.13;;;1.80;;
7517;SDS011;3800;48.922;9.444;2022-08-01T07:55:50;3.70;;;1.90;;
7517;SDS011;3800;48.922;9.444;2022-08-01T07:58:18;2.37;;;1.60;;
7517;SDS011;3800;48.922;9.444;2022-08-01T08:00:46;3.00;;;1.60;;
7517;SDS011;3800;48.922;9.444;2022-08-01T08:03:15;2.60;;;1.40;;
7517;SDS011;3800;48.922;9.444;2022-08-01T08:05:43;3.50;;;1.60;;
7517;SDS011;3800;48.922;9.444;2022-08-01T08:08:11;1.67;;;1.50;;
7517;SDS011;3800;48.922;9.444;2022-08-01T08:10:40;1.60;;;1.50;;
7517;SDS011;3800;48.922;9.444;2022-08-01T08:13:08;2.03;;;1.70;;
7517;SDS011;3800;48.922;9.444;2022-08-01T08:15:36;2.47;;;1.60;;
7517;SDS011;3800;48.922;9.444;2022-08-01T08:18:04;2.40;;;1.77;;
7517;SDS011;3800;48.922;9.444;2022-08-01T08:20:33;1.93;;;1.73;;
7517;SDS011;3800;48.922;9.444;2022-08-01T08:23:01;2.20;;;1.80;;
7517;SDS011;3800;48.922;9.444;2022-08-01T08:25:29;3.70;;;1.73;;
7517;SDS011;3800;48.922;9.444;2022-08-01T08:27:58;4.10;;;2.13;;
7517;SDS011;3800;48.922;9.444;2022-08-01T08:30:27;3.37;;;1.83;;
7517;SDS011;3800;48.922;9.444;2022-08-01T08:32:55;2.80;;;1.90;;
7517;SDS011;3800;48.922;9.444;2022-08-01T08:35:23;2.47;;;1.70;;
7517;SDS011;3800;48.922;9.444;2022-08-01T08:37:52;2.60;;;1.80;;
7517;SDS011;3800;48.922;9.444;2022-08-01T08:40:20;4.27;;;1.87;;
7517;SDS011;3800;48.922;9.444;2022-08-01T08:42:49;2.30;;;1.90;;
7517;SDS011;3800;48.922;9.444;2022-08-01T08:45:17;2.47;;;1.90;;
7517;SDS011;3800;48.922;9.444;2022-08-01T08:47:46;4.60;;;1.93;;
7517;SDS011;3800;48.922;9.444;2022-08-01T08:50:14;3.30;;;1.70;;
7517;SDS011;3800;48.922;9.444;2022-08-01T08:52:42;4.47;;;1.87;;
7517;SDS011;3800;48.922;9.444;2022-08-01T08:55:11;2.00;;;1.70;;
7517;SDS011;3800;48.922;9.444;2022-08-01T08:57:39;2.10;;;1.70;;
7517;SDS011;3800;48.922;9.444;2022-08-01T09:00:08;1.77;;;1.60;;
7517;SDS011;3800;48.922;9.444;2022-08-01T09:02:40;2.10;;;1.60;;
7517;SDS011;3800;48.922;9.444;2022-08-01T09:05:10;2.83;;;1.60;;
7517;SDS011;3800;48.922;9.444;2022-08-01T09:07:38;2.80;;;1.83;;
7517;SDS011;3800;48.922;9.444;2022-08-01T09:10:07;2.13;;;1.70;;
7517;SDS011;3800;48.922;9.444;2022-08-01T09:12:36;5.20;;;2.00;;
7517;SDS011;3800;48.922;9.444;2022-08-01T09:15:04;2.27;;;1.80;;
7517;SDS011;3800;48.922;9.444;2022-08-01T09:17:40;2.07;;;1.80;;
7517;SDS011;3800;48.922;9.444;2022-08-01T09:20:07;1.80;;;1.70;;
7517;SDS011;3800;48.922;9.444;2022-08-01T09:22:36;2.93;;;1.87;;
7517;SDS011;3800;48.922;9.444;2022-08-01T09:25:06;2.63;;;2.00;;
7517;SDS011;3800;48.922;9.444;2022-08-01T09:27:34;2.37;;;2.10;;
7517;SDS011;3800;48.922;9.444;2022-08-01T09:35:26;3.17;;;1.77;;
7517;SDS011;3800;48.922;9.444;2022-08-01T09:38:18;2.70;;;2.00;;
7517;SDS011;3800;48.922;9.444;2022-08-01T09:40:48;2.30;;;1.80;;
7517;SDS011;3800;48.922;9.444;2022-08-01T09:43:19;2.23;;;1.80;;
7517;SDS011;3800;48.922;9.444;2022-08-01T09:45:47;3.10;;;1.67;;
7517;SDS011;3800;48.922;9.444;2022-08-01T09:48:16;1.80;;;1.70;;
7517;SDS011;3800;48.922;9.444;2022-08-01T09:50:45;2.50;;;2.00;;
7517;SDS011;3800;48.922;9.444;2022-08-01T09:53:14;3.23;;;1.87;;
7517;SDS011;3800;48.922;9.444;2022-08-01T09:55:42;2.17;;;1.60;;
7517;SDS011;3800;48.922;9.444;2022-08-01T09:58:11;2.33;;;2.00;;
7517;SDS011;3800;48.922;9.444;2022-08-01T10:00:39;3.93;;;1.90;;
7517;SDS011;3800;48.922;9.444;2022-08-01T10:05:48;3.17;;;1.90;;
7517;SDS011;3800;48.922;9.444;2022-08-01T10:08:16;4.10;;;2.10;;
7517;SDS011;3800;48.922;9.444;2022-08-01T10:11:04;2.90;;;1.80;;
7517;SDS011;3800;48.922;9.444;2022-08-01T10:13:34;2.53;;;1.90;;
7517;SDS011;3800;48.922;9.444;2022-08-01T10:16:02;3.33;;;1.83;;
7517;SDS011;3800;48.922;9.444;2022-08-01T10:18:32;2.93;;;1.97;;
7517;SDS011;3800;48.922;9.444;2022-08-01T10:21:00;2.20;;;2.00;;
7517;SDS011;3800;48.922;9.444;2022-08-01T10:23:30;2.73;;;1.90;;
7517;SDS011;3800;48.922;9.444;2022-08-01T10:25:56;2.30;;;2.10;;
7517;SDS011;3800;48.922;9.444;2022-08-01T10:28:24;3.33;;;2.27;;
7517;SDS011;3800;48.922;9.444;2022-08-01T10:30:53;3.43;;;2.30;;
7517;SDS011;3800;48.922;9.444;2022-08-01T10:33:21;3.27;;;2.33;;
7517;SDS011;3800;48.922;9.444;2022-08-01T10:35:50;3.80;;;2.40;;
7517;SDS011;3800;48.922;9.444;2022-08-01T10:38:18;5.77;;;4.73;;
7517;SDS011;3800;48.922;9.444;2022-08-01T10:40:47;3.80;;;3.10;;
7517;SDS011;3800;48.922;9.444;2022-08-01T10:43:15;4.00;;;2.47;;
7517;SDS011;3800;48.922;9.444;2022-08-01T10:45:43;3.90;;;2.50;;
7517;SDS011;3800;48.922;9.444;2022-08-01T10:48:14;3.23;;;2.30;;
7517;SDS011;3800;48.922;9.444;2022-08-01T10:50:57;3.07;;;2.70;;
7517;SDS011;3800;48.922;9.444;2022-08-01T10:53:26;4.73;;;2.80;;
7517;SDS011;3800;48.922;9.444;2022-08-01T10:55:57;2.40;;;2.20;;
7517;SDS011;3800;48.922;9.444;2022-08-01T10:58:34;3.00;;;2.70;;
7517;SDS011;3800;48.922;9.444;2022-08-01T11:03:57;2.83;;;2.33;;
7517;SDS011;3800;48.922;9.444;2022-08-01T11:06:25;3.73;;;2.73;;
7517;SDS011;3800;48.922;9.444;2022-08-01T11:08:54;5.23;;;2.70;;
7517;SDS011;3800;48.922;9.444;2022-08-01T11:11:21;2.70;;;2.30;;
7517;SDS011;3800;48.922;9.444;2022-08-01T11:16:28;2.80;;;2.40;;
7517;SDS011;3800;48.922;9.444;2022-08-01T11:18:57;3.63;;;2.50;;
7517;SDS011;3800;48.922;9.444;2022-08-01T11:24:11;3.43;;;2.37;;
7517;SDS011;3800;48.922;9.444;2022-08-01T11:26:40;3.97;;;2.10;;
7517;SDS011;3800;48.922;9.444;2022-08-01T11:29:11;2.87;;;2.10;;
7517;SDS011;3800;48.922;9.444;2022-08-01T11:31:38;2.33;;;2.10;;
7517;SDS011;3800;48.922;9.444;2022-08-01T11:34:06;2.43;;;1.90;;
7517;SDS011;3800;48.922;9.444;2022-08-01T11:36:35;3.13;;;2.00;;
7517;SDS011;3800;48.922;9.444;2022-08-01T11:39:11;2.57;;;1.83;;
7517;SDS011;3800;48.922;9.444;2022-08-01T11:41:39;2.63;;;1.87;;
7517;SDS011;3800;48.922;9.444;2022-08-01T11:44:08;2.40;;;1.80;;
7517;SDS011;3800;48.922;9.444;2022-08-01T11:54:27;2.33;;;1.80;;
7517;SDS011;3800;48.922;9.444;2022-08-01T11:56:57;2.70;;;1.90;;
7517;SDS011;3800;48.922;9.444;2022-08-01T11:59:25;2.00;;;1.60;;
7517;SDS011;3800;48.922;9.444;2022-08-01T12:01:53;1.97;;;1.70;;
7517;SDS011;3800;48.922;9.444;2022-08-01T12:04:21;2.07;;;1.87;;
7517;SDS011;3800;48.922;9.444;2022-08-01T12:06:50;1.90;;;1.70;;
7517;SDS011;3800;48.922;9.444;2022-08-01T12:09:19;2.80;;;1.80;;
7517;SDS011;3800;48.922;9.444;2022-08-01T12:11:47;2.00;;;1.63;;
7517;SDS011;3800;48.922;9.444;2022-08-01T12:14:16;1.50;;;1.40;;
7517;SDS011;3800;48.922;9.444;2022-08-01T12:16:48;2.87;;;1.70;;
7517;SDS011;3800;48.922;9.444;2022-08-01T12:19:20;2.83;;;1.50;;
7517;SDS011;3800;48.922;9.444;2022-08-01T12:24:34;1.93;;;1.60;;
7517;SDS011;3800;48.922;9.444;2022-08-01T12:27:01;4.30;;;1.63;;
7517;SDS011;3800;48.922;9.444;2022-08-01T12:29:33;3.77;;;1.80;;
7517;SDS011;3800;48.922;9.444;2022-08-01T12:32:04;2.07;;;1.80;;
7517;SDS011;3800;48.922;9.444;2022-08-01T12:34:48;3.07;;;1.90;;
7517;SDS011;3800;48.922;9.444;2022-08-01T12:37:16;2.53;;;1.80;;
7517;SDS011;3800;48.922;9.444;2022-08-01T12:39:45;2.43;;;1.83;;
7517;SDS011;3800;48.922;9.444;2022-08-01T12:42:13;2.30;;;1.70;;
7517;SDS011;3800;48.922;9.444;2022-08-01T12:44:43;1.87;;;1.60;;
7517;SDS011;3800;48.922;9.444;2022-08-01T12:47:11;3.90;;;1.90;;
7517;SDS011;3800;48.922;9.444;2022-08-01T12:49:39;2.90;;;1.70;;
7517;SDS011;3800;48.922;9.444;2022-08-01T12:52:07;1.90;;;1.50;;
7517;SDS011;3800;48.922;9.444;2022-08-01T12:57:22;3.43;;;1.80;;
7517;SDS011;3800;48.922;9.444;2022-08-01T12:59:52;3.40;;;1.60;;
7517;SDS011;3800;48.922;9.444;2022-08-01T13:02:20;1.70;;;1.60;;
7517;SDS011;3800;48.922;9.444;2022-08-01T13:04:49;2.13;;;1.60;;
7517;SDS011;3800;48.922;9.444;2022-08-01T13:07:17;2.13;;;1.47;;
7517;SDS011;3800;48.922;9.444;2022-08-01T13:09:49;1.70;;;1.60;;
7517;SDS011;3800;48.922;9.444;2022-08-01T13:12:18;1.50;;;1.40;;
7517;SDS011;3800;48.922;9.444;2022-08-01T13:14:47;1.60;;;1.50;;
7517;SDS011;3800;48.922;9.444;2022-08-01T13:17:29;2.17;;;1.70;;
7517;SDS011;3800;48.922;9.444;2022-08-01T13:19:59;1.60;;;1.50;;
7517;SDS011;3800;48.922;9.444;2022-08-01T13:22:32;1.83;;;1.40;;
7517;SDS011;3800;48.922;9.444;2022-08-01T13:27:38;1.60;;;1.43;;
7517;SDS011;3800;48.922;9.444;2022-08-01T13:30:14;2.27;;;1.40;;
7517;SDS011;3800;48.922;9.444;2022-08-01T13:32:42;2.43;;;1.50;;
7517;SDS011;3800;48.922;9.444;2022-08-01T13:35:12;2.67;;;1.30;;
7517;SDS011;3800;48.922;9.444;2022-08-01T13:37:40;1.40;;;1.30;;
7517;SDS011;3800;48.922;9.444;2022-08-01T13:40:08;3.07;;;1.37;;
7517;SDS011;3800;48.922;9.444;2022-08-01T13:42:37;2.30;;;1.60;;
7517;SDS011;3800;48.922;9.444;2022-08-01T13:45:07;2.33;;;1.70;;
7517;SDS011;3800;48.922;9.444;2022-08-01T13:47:35;1.67;;;1.50;;
7517;SDS011;3800;48.922;9.444;2022-08-01T13:50:03;1.77;;;1.40;;
7517;SDS011;3800;48.922;9.444;2022-08-01T13:52:32;1.70;;;1.27;;
7517;SDS011;3800;48.922;9.444;2022-08-01T13:55:01;2.27;;;1.40;;
7517;SDS011;3800;48.922;9.444;2022-08-01T13:57:29;4.50;;;1.50;;
7517;SDS011;3800;48.922;9.444;2022-08-01T13:59:57;1.50;;;1.40;;
7517;SDS011;3800;48.922;9.444;2022-08-01T14:02:26;3.07;;;1.53;;
7517;SDS011;3800;48.922;9.444;2022-08-01T14:04:55;2.07;;;1.50;;
7517;SDS011;3800;48.922;9.444;2022-08-01T14:07:23;1.87;;;1.60;;
7517;SDS011;3800;48.922;9.444;2022-08-01T14:09:51;3.87;;;1.60;;
7517;SDS011;3800;48.922;9.444;2022-08-01T14:12:19;2.40;;;1.40;;
7517;SDS011;3800;48.922;9.444;2022-08-01T14:14:48;3.43;;;1.63;;
7517;SDS011;3800;48.922;9.444;2022-08-01T14:17:16;2.00;;;1.60;;
7517;SDS011;3800;48.922;9.444;2022-08-01T14:19:44;1.50;;;1.37;;
7517;SDS011;3800;48.922;9.444;2022-08-01T14:22:13;4.60;;;1.50;;
7517;SDS011;3800;48.922;9.444;2022-08-01T14:24:41;1.30;;;1.20;;
7517;SDS011;3800;48.922;9.444;2022-08-01T14:27:09;1.70;;;1.40;;
7517;SDS011;3800;48.922;9.444;2022-08-01T14:29:37;2.73;;;1.60;;
7517;SDS011;3800;48.922;9.444;2022-08-01T14:32:06;2.03;;;1.50;;
7517;SDS011;3800;48.922;9.444;2022-08-01T14:34:35;2.00;;;1.60;;
7517;SDS011;3800;48.922;9.444;2022-08-01T14:37:03;3.30;;;1.40;;
7517;SDS011;3800;48.922;9.444;2022-08-01T14:39:31;2.43;;;1.60;;
7517;SDS011;3800;48.922;9.444;2022-08-01T14:41:59;3.23;;;1.80;;
7517;SDS011;3800;48.922;9.444;2022-08-01T14:44:28;2.73;;;1.60;;
7517;SDS011;3800;48.922;9.444;2022-08-01T14:46:56;3.47;;;1.60;;
7517;SDS011;3800;48.922;9.444;2022-08-01T14:49:24;2.27;;;1.43;;
7517;SDS011;3800;48.922;9.444;2022-08-01T14:51:52;1.87;;;1.70;;
7517;SDS011;3800;48.922;9.444;2022-08-01T14:54:21;1.50;;;1.40;;
7517;SDS011;3800;48.922;9.444;2022-08-01T14:56:49;2.17;;;1.60;;
7517;SDS011;3800;48.922;9.444;2022-08-01T14:59:18;2.93;;;1.50;;
7517;SDS011;3800;48.922;9.444;2022-08-01T15:01:46;2.07;;;1.50;;
7517;SDS011;3800;48.922;9.444;2022-08-01T15:04:14;3.77;;;1.50;;
7517;SDS011;3800;48.922;9.444;2022-08-01T15:06:43;3.57;;;1.50;;
7517;SDS011;3800;48.922;9.444;2022-08-01T15:09:11;3.27;;;1.40;;
7517;SDS011;3800;48.922;9.444;2022-08-01T15:11:39;3.43;;;1.70;;
7517;SDS011;3800;48.922;9.444;2022-08-01T15:14:07;3.40;;;1.60;;
7517;SDS011;3800;48.922;9.444;2022-08-01T15:16:41;1.50;;;1.33;;
7517;SDS011;3800;48.922;9.444;2022-08-01T15:19:09;2.80;;;1.60;;
7517;SDS011;3800;48.922;9.444;2022-08-01T15:21:37;1.60;;;1.50;;
7517;SDS011;3800;48.922;9.444;2022-08-01T15:24:06;3.70;;;2.00;;
7517;SDS011;3800;48.922;9.444;2022-08-01T15:26:35;1.70;;;1.60;;
7517;SDS011;3800;48.922;9.444;2022-08-01T15:29:04;5.20;;;1.60;;
7517;SDS011;3800;48.922;9.444;2022-08-01T15:31:32;3.20;;;1.60;;
7517;SDS011;3800;48.922;9.444;2022-08-01T15:34:00;3.63;;;1.53;;
7517;SDS011;3800;48.922;9.444;2022-08-01T15:36:28;2.43;;;1.37;;
7517;SDS011;3800;48.922;9.444;2022-08-01T15:38:57;15.10;;;2.20;;
7517;SDS011;3800;48.922;9.444;2022-08-01T15:41:25;12.73;;;2.07;;
7517;SDS011;3800;48.922;9.444;2022-08-01T15:43:53;15.07;;;2.13;;
7517;SDS011;3800;48.922;9.444;2022-08-01T15:46:22;3.63;;;2.30;;
7517;SDS011;3800;48.922;9.444;2022-08-01T15:48:50;2.17;;;1.70;;
7517;SDS011;3800;48.922;9.444;2022-08-01T15:51:19;3.50;;;1.40;;
7517;SDS011;3800;48.922;9.444;2022-08-01T15:53:47;1.97;;;1.33;;
7517;SDS011;3800;48.922;9.444;2022-08-01T15:56:15;1.60;;;1.50;;
7517;SDS011;3800;48.922;9.444;2022-08-01T15:58:44;1.57;;;1.40;;
7517;SDS011;3800;48.922;9.444;2022-08-01T16:01:12;21.00;;;2.50;;
7517;SDS011;3800;48.922;9.444;2022-08-01T16:03:40;2.07;;;1.30;;